createdAt,value
2023-04-03T00:00:41.377Z,1.30
2023-04-03T00:06:16.909Z,1.70
2023-04-03T00:11:42.686Z,1.10
2023-04-03T00:17:08.637Z,1.30
2023-04-03T00:22:34.882Z,1.50
2023-04-03T00:28:01.537Z,1.40
2023-04-03T00:33:27.159Z,1.00
2023-04-03T00:38:54.025Z,1.20
2023-04-03T00:44:19.745Z,1.30
2023-04-03T00:49:45.473Z,1.30
2023-04-03T00:55:15.741Z,1.40
2023-04-03T01:00:44.147Z,1.20
2023-04-03T01:06:10.358Z,1.40
2023-04-03T01:11:36.030Z,1.80
2023-04-03T01:17:01.849Z,1.10
2023-04-03T01:22:39.328Z,1.00
2023-04-03T01:28:05.342Z,1.40
2023-04-03T01:33:30.971Z,1.50
2023-04-03T01:38:56.706Z,1.20
2023-04-03T01:44:22.381Z,0.90
2023-04-03T01:49:48.446Z,1.40
2023-04-03T01:55:14.075Z,0.80
2023-04-03T02:00:40.976Z,1.00
2023-04-03T02:06:06.770Z,0.90
2023-04-03T02:11:32.473Z,0.80
2023-04-03T02:16:58.190Z,1.20
2023-04-03T02:22:24.028Z,1.10
2023-04-03T02:27:49.796Z,1.10
2023-04-03T02:33:15.493Z,1.80
2023-04-03T02:38:41.254Z,1.30
2023-04-03T02:44:06.923Z,1.60
2023-04-03T02:49:32.861Z,1.60
2023-04-03T02:54:58.657Z,1.50
2023-04-03T03:00:25.082Z,1.50
2023-04-03T03:05:50.756Z,1.50
2023-04-03T03:11:16.484Z,1.80
2023-04-03T03:16:42.098Z,1.20
2023-04-03T03:22:07.773Z,1.40
2023-04-03T03:27:33.453Z,1.40
2023-04-03T03:32:59.091Z,2.20
2023-04-03T03:38:24.899Z,1.20
2023-04-03T03:43:50.638Z,1.20
2023-04-03T03:49:16.354Z,1.20
2023-04-03T03:54:42.015Z,1.00
2023-04-03T04:00:07.837Z,1.80
2023-04-03T04:05:33.509Z,1.00
2023-04-03T04:11:00.357Z,1.20
2023-04-03T04:16:27.206Z,1.30
2023-04-03T04:21:52.850Z,1.40
2023-04-03T04:27:18.772Z,1.20
2023-04-03T04:32:44.583Z,1.20
2023-04-03T04:38:10.312Z,1.30
2023-04-03T04:43:35.997Z,1.30
2023-04-03T04:48:54.102Z,1.30
2023-04-03T04:54:19.851Z,1.40
2023-04-03T04:59:35.824Z,1.40
2023-04-03T05:05:04.419Z,1.60
2023-04-03T05:10:22.382Z,1.40
2023-04-03T05:15:48.190Z,1.50
2023-04-03T05:21:14.263Z,1.60
2023-04-03T05:26:40.047Z,1.50
2023-04-03T05:32:05.720Z,2.10
2023-04-03T05:37:31.644Z,1.60
2023-04-03T05:42:57.099Z,1.50
2023-04-03T05:48:23.036Z,1.60
2023-04-03T05:53:53.140Z,1.20
2023-04-03T05:59:18.864Z,1.30
2023-04-03T06:04:44.723Z,1.40
2023-04-03T06:10:11.273Z,1.40
2023-04-03T06:15:37.180Z,1.30
2023-04-03T06:21:02.865Z,1.30
2023-04-03T06:26:28.691Z,1.00
2023-04-03T06:31:54.387Z,1.20
2023-04-03T06:37:20.075Z,1.60
2023-04-03T06:42:47.347Z,1.60
2023-04-03T06:48:13.215Z,1.10
2023-04-03T06:53:38.935Z,1.10
2023-04-03T06:59:05.663Z,1.60
2023-04-03T07:04:31.458Z,1.30
2023-04-03T07:09:50.371Z,1.00
2023-04-03T07:15:16.035Z,1.10
2023-04-03T07:20:41.844Z,0.90
2023-04-03T07:26:08.936Z,1.10
2023-04-03T07:31:34.949Z,1.20
2023-04-03T07:37:00.709Z,0.90
2023-04-03T07:42:26.783Z,0.80
2023-04-03T07:47:52.546Z,1.00
2023-04-03T07:53:18.239Z,0.90
2023-04-03T07:58:43.964Z,1.10
2023-04-03T08:04:09.694Z,0.70
2023-04-03T08:09:36.546Z,0.80
2023-04-03T08:15:02.222Z,1.00
2023-04-03T08:20:23.971Z,1.00
2023-04-03T08:25:49.588Z,0.80
2023-04-03T08:31:15.086Z,0.90
2023-04-03T08:36:44.528Z,1.20
2023-04-03T08:42:10.246Z,1.00
2023-04-03T08:47:37.320Z,0.90
2023-04-03T08:53:07.199Z,1.00
2023-04-03T08:58:36.548Z,0.90
2023-04-03T09:04:03.579Z,1.00
2023-04-03T09:09:35.978Z,1.40
2023-04-03T09:15:06.999Z,0.90
2023-04-03T09:20:45.102Z,0.80
2023-04-03T09:26:14.539Z,1.10
2023-04-03T09:31:47.136Z,1.00
2023-04-03T09:37:16.259Z,1.30
2023-04-03T09:42:46.463Z,1.00
2023-04-03T09:48:37.574Z,1.00
2023-04-03T09:54:05.498Z,0.70
2023-04-03T09:59:36.898Z,0.70
2023-04-03T10:10:42.564Z,1.30
2023-04-03T10:16:12.476Z,0.80
2023-04-03T10:21:49.837Z,0.90
2023-04-03T10:27:24.083Z,0.80
2023-04-03T10:33:11.055Z,0.80
2023-04-03T10:38:41.561Z,0.60
2023-04-03T10:44:17.647Z,1.00
2023-04-03T10:50:03.392Z,1.00
2023-04-03T10:55:46.157Z,1.70
2023-04-03T11:01:20.949Z,0.70
2023-04-03T11:06:53.964Z,0.70
2023-04-03T11:12:26.635Z,0.80
2023-04-03T11:17:57.481Z,0.90
2023-04-03T11:23:25.614Z,1.00
2023-04-03T11:28:52.808Z,1.00
2023-04-03T11:34:29.314Z,0.70
2023-04-03T11:39:58.830Z,1.00
2023-04-03T11:45:49.333Z,0.80
2023-04-03T11:51:15.346Z,0.80
2023-04-03T11:56:56.330Z,1.00
2023-04-03T12:02:22.032Z,0.90
2023-04-03T12:07:48.130Z,0.80
2023-04-03T12:13:22.002Z,1.00
2023-04-03T12:19:24.240Z,0.80
2023-04-03T12:24:46.191Z,0.70
2023-04-03T12:30:17.260Z,0.70
2023-04-03T12:35:49.352Z,0.60
2023-04-03T12:41:25.990Z,1.20
2023-04-03T12:46:59.721Z,1.00
2023-04-03T12:52:38.043Z,1.20
2023-04-03T12:58:05.108Z,1.00
2023-04-03T13:03:46.627Z,0.90
2023-04-03T13:09:15.958Z,1.20
2023-04-03T13:14:42.974Z,0.80
2023-04-03T13:20:09.233Z,1.00
2023-04-03T13:25:38.367Z,1.00
2023-04-03T13:31:29.994Z,0.90
2023-04-03T13:36:59.984Z,0.70
2023-04-03T13:42:44.495Z,0.80
2023-04-03T13:48:22.123Z,0.80
2023-04-03T13:53:51.738Z,0.70
2023-04-03T13:59:42.848Z,0.80
2023-04-03T14:05:06.283Z,0.80
2023-04-03T14:10:32.831Z,1.00
2023-04-03T14:16:03.094Z,1.00
2023-04-03T14:21:41.190Z,0.80
2023-04-03T14:27:07.814Z,1.20
2023-04-03T14:32:35.807Z,0.90
2023-04-03T14:38:01.245Z,1.20
2023-04-03T14:43:31.138Z,0.80
2023-04-03T14:48:56.798Z,1.20
2023-04-03T14:54:23.012Z,0.70
2023-04-03T14:59:50.201Z,1.70
2023-04-03T15:05:09.458Z,1.60
2023-04-03T15:10:43.496Z,1.10
2023-04-03T15:16:11.412Z,1.10
2023-04-03T15:21:37.085Z,1.30
2023-04-03T15:27:03.122Z,0.90
2023-04-03T15:32:31.251Z,1.20
2023-04-03T15:37:58.293Z,1.20
2023-04-03T15:43:24.197Z,1.60
2023-04-03T15:48:50.556Z,1.60
2023-04-03T15:54:16.397Z,1.10
2023-04-03T15:59:42.117Z,1.40
2023-04-03T16:05:08.539Z,0.90
2023-04-03T16:10:37.227Z,1.20
2023-04-03T16:16:03.722Z,1.00
2023-04-03T16:21:31.115Z,1.30
2023-04-03T16:26:56.974Z,1.30
2023-04-03T16:32:23.682Z,1.00
2023-04-03T16:37:49.437Z,0.90
2023-04-03T16:43:15.385Z,1.10
2023-04-03T16:48:41.234Z,0.90
2023-04-03T16:54:06.981Z,1.30
2023-04-03T16:59:32.641Z,1.00
2023-04-03T17:04:58.415Z,1.30
2023-04-03T17:10:24.274Z,1.20
2023-04-03T17:15:50.045Z,1.00
2023-04-03T17:21:16.462Z,1.20
2023-04-03T17:26:42.208Z,1.00
2023-04-03T17:32:07.913Z,1.30
2023-04-03T17:37:33.918Z,1.10
2023-04-03T17:42:59.590Z,1.20
2023-04-03T17:48:25.751Z,1.00
2023-04-03T17:53:51.494Z,1.60
2023-04-03T17:59:17.860Z,1.30
2023-04-03T18:04:43.688Z,1.60
2023-04-03T18:10:11.063Z,1.40
2023-04-03T18:15:37.461Z,1.20
2023-04-03T18:21:03.774Z,1.50
2023-04-03T18:26:32.371Z,1.00
2023-04-03T18:32:01.364Z,1.20
2023-04-03T18:37:27.055Z,1.20
2023-04-03T18:42:53.262Z,1.20
2023-04-03T18:48:19.080Z,1.10
2023-04-03T18:53:45.158Z,1.20
2023-04-03T18:59:10.969Z,1.40
2023-04-03T19:04:37.616Z,1.30
2023-04-03T19:10:03.301Z,1.60
2023-04-03T19:15:30.760Z,1.30
2023-04-03T19:20:56.460Z,1.30
2023-04-03T19:26:25.168Z,1.80
2023-04-03T19:31:50.864Z,3.00
2023-04-03T19:37:16.849Z,2.50
2023-04-03T19:42:42.682Z,1.70
2023-04-03T19:48:08.985Z,1.60
2023-04-03T19:53:29.438Z,1.40
2023-04-03T19:58:55.376Z,1.60
2023-04-03T20:04:21.039Z,1.80
2023-04-03T20:09:47.015Z,2.00
2023-04-03T20:15:12.676Z,2.00
2023-04-03T20:20:38.771Z,2.60
2023-04-03T20:26:10.685Z,2.10
2023-04-03T20:31:40.608Z,2.10
2023-04-03T20:37:06.393Z,1.90
2023-04-03T20:42:32.512Z,1.40
2023-04-03T20:47:58.540Z,1.50
2023-04-03T20:53:24.231Z,1.50
2023-04-03T20:58:50.720Z,1.50
2023-04-03T21:04:22.984Z,1.10
2023-04-03T21:10:32.351Z,1.50
2023-04-03T21:16:10.547Z,1.10
2023-04-03T21:21:44.074Z,1.60
2023-04-03T21:27:10.023Z,1.10
2023-04-03T21:32:35.871Z,1.20
2023-04-03T21:38:01.512Z,1.50
2023-04-03T21:43:27.603Z,1.20
2023-04-03T21:48:53.342Z,1.50
2023-04-03T21:54:18.985Z,1.30
2023-04-03T21:59:55.988Z,1.20
2023-04-03T22:05:21.741Z,1.10
2023-04-03T22:10:47.553Z,1.40
2023-04-03T22:16:13.250Z,1.30
2023-04-03T22:21:39.321Z,1.20
2023-04-03T22:27:05.048Z,1.40
2023-04-03T22:32:13.623Z,1.70
2023-04-03T22:37:39.258Z,1.90
2023-04-03T22:43:08.244Z,1.60
2023-04-03T22:48:26.488Z,1.40
2023-04-03T22:53:52.120Z,1.70
2023-04-03T22:59:18.080Z,1.50
2023-04-03T23:04:43.896Z,1.60
2023-04-03T23:10:10.275Z,1.30
2023-04-03T23:15:36.004Z,1.50
2023-04-03T23:20:52.822Z,1.50
2023-04-03T23:26:20.088Z,1.20
2023-04-03T23:31:45.835Z,1.30
2023-04-03T23:37:11.479Z,1.60
2023-04-03T23:42:37.196Z,1.60
2023-04-03T23:48:02.891Z,1.90
2023-04-03T23:53:28.679Z,1.60
2023-04-03T23:58:54.382Z,1.50
